createdAt,value
2022-12-12T00:04:03.712Z,100436.59
2022-12-12T00:09:05.556Z,100439.97
2022-12-12T00:14:07.119Z,100448.28
2022-12-12T00:19:08.762Z,100446.97
2022-12-12T00:24:11.057Z,100447.72
2022-12-12T00:29:12.671Z,100449.53
2022-12-12T00:34:14.268Z,100451.44
2022-12-12T00:39:18.480Z,100454.53
2022-12-12T00:44:20.198Z,100463.69
2022-12-12T00:49:21.755Z,100463.09
2022-12-12T00:54:23.273Z,100454.78
2022-12-12T00:59:24.786Z,100464.97
2022-12-12T01:04:26.307Z,100462.94
2022-12-12T01:09:27.847Z,100468.69
2022-12-12T01:14:29.567Z,100472.28
2022-12-12T01:19:31.109Z,100476.06
2022-12-12T01:24:32.659Z,100481.59
2022-12-12T01:29:34.923Z,100488.72
2022-12-12T01:34:36.434Z,100496.22
2022-12-12T01:39:38.903Z,100484.13
2022-12-12T01:44:45.184Z,100493.22
2022-12-12T01:50:01.346Z,100497.34
2022-12-12T01:55:06.228Z,100499.22
2022-12-12T02:00:11.115Z,100501.47
2022-12-12T02:05:23.433Z,100499.69
2022-12-12T02:10:25.282Z,100502.75
2022-12-12T02:15:34.630Z,100506.91
2022-12-12T02:21:04.291Z,100505.28
2022-12-12T02:26:24.327Z,100506.56
2022-12-12T02:31:30.366Z,100497.03
2022-12-12T02:36:43.084Z,100503.00
2022-12-12T02:41:54.073Z,100502.28
2022-12-12T02:47:07.887Z,100503.34
2022-12-12T02:52:11.225Z,100495.47
2022-12-12T02:57:21.048Z,100497.63
2022-12-12T03:02:37.526Z,100494.59
2022-12-12T03:08:04.280Z,100504.09
2022-12-12T03:13:23.933Z,100495.13
2022-12-12T03:18:37.673Z,100502.97
2022-12-12T03:23:47.282Z,100497.50
2022-12-12T03:28:55.929Z,100496.19
2022-12-12T03:34:02.582Z,100505.47
2022-12-12T03:39:11.568Z,100503.16
2022-12-12T03:44:22.141Z,100509.75
2022-12-12T03:49:33.193Z,100502.50
2022-12-12T03:54:41.873Z,100509.97
2022-12-12T03:59:59.682Z,100516.41
2022-12-12T04:05:16.457Z,100516.53
2022-12-12T04:10:18.497Z,100525.22
2022-12-12T04:15:41.517Z,100528.25
2022-12-12T04:21:28.181Z,100520.75
2022-12-12T04:26:46.911Z,100510.69
2022-12-12T04:32:12.217Z,100523.81
2022-12-12T04:37:19.905Z,100532.47
2022-12-12T04:42:25.027Z,100543.72
2022-12-12T04:47:31.134Z,100530.47
2022-12-12T04:52:34.200Z,100537.53
2022-12-12T04:57:41.265Z,100537.41
2022-12-12T05:02:57.545Z,100539.72
2022-12-12T05:08:32.431Z,100553.44
2022-12-12T05:13:37.941Z,100552.59
2022-12-12T05:18:39.503Z,100555.19
2022-12-12T05:23:41.394Z,100549.81
2022-12-12T05:28:42.895Z,100551.81
2022-12-12T05:33:44.527Z,100553.94
2022-12-12T05:38:46.084Z,100553.22
2022-12-12T05:43:48.482Z,100552.16
2022-12-12T05:48:49.989Z,100560.69
2022-12-12T05:53:51.522Z,100566.09
2022-12-12T05:58:53.038Z,100563.53
2022-12-12T06:03:54.606Z,100565.50
2022-12-12T06:08:56.158Z,100571.59
2022-12-12T06:13:57.752Z,100567.25
2022-12-12T06:18:59.341Z,100569.59
2022-12-12T06:24:00.885Z,100571.81
2022-12-12T06:29:02.711Z,100575.56
2022-12-12T06:34:04.302Z,100572.63
2022-12-12T06:39:05.992Z,100585.16
2022-12-12T06:44:07.658Z,100582.69
2022-12-12T06:49:09.152Z,100590.22
2022-12-12T06:54:15.734Z,100588.91
2022-12-12T06:59:17.398Z,100596.41
2022-12-12T07:04:18.881Z,100591.25
2022-12-12T07:09:20.564Z,100600.72
2022-12-12T07:14:22.134Z,100610.69
2022-12-12T07:19:23.683Z,100614.66
2022-12-12T07:24:25.196Z,100615.03
2022-12-12T07:29:26.971Z,100622.31
2022-12-12T07:34:29.674Z,100613.88
2022-12-12T07:39:32.405Z,100624.16
2022-12-12T07:44:34.224Z,100620.78
2022-12-12T07:49:35.747Z,100617.75
2022-12-12T07:54:38.729Z,100624.97
2022-12-12T07:59:40.379Z,100631.56
2022-12-12T08:04:41.950Z,100633.28
2022-12-12T08:09:43.627Z,100633.06
2022-12-12T08:14:45.358Z,100631.22
2022-12-12T08:19:46.849Z,100634.13
2022-12-12T08:24:49.531Z,100641.59
2022-12-12T08:29:52.802Z,100647.81
2022-12-12T08:34:58.221Z,100637.34
2022-12-12T08:39:59.947Z,100646.59
2022-12-12T08:45:01.502Z,100651.25
2022-12-12T08:50:04.434Z,100657.34
2022-12-12T08:55:07.214Z,100666.09
2022-12-12T09:00:09.515Z,100662.31
2022-12-12T09:05:11.419Z,100667.00
2022-12-12T09:10:13.159Z,100685.50
2022-12-12T09:15:15.232Z,100681.91
2022-12-12T09:20:17.148Z,100691.97
2022-12-12T09:25:18.778Z,100688.28
2022-12-12T09:30:20.388Z,100685.00
2022-12-12T09:35:22.162Z,100684.03
2022-12-12T09:40:32.818Z,100698.28
2022-12-12T09:45:37.027Z,100700.63
2022-12-12T09:50:47.856Z,100705.53
2022-12-12T09:56:05.319Z,100705.00
2022-12-12T10:01:18.522Z,100703.53
2022-12-12T10:06:37.273Z,100696.44
2022-12-12T10:11:42.254Z,100700.47
2022-12-12T10:16:44.181Z,100702.75
2022-12-12T10:21:47.877Z,100693.13
2022-12-12T10:26:49.542Z,100690.44
2022-12-12T10:32:26.719Z,100704.78
2022-12-12T10:38:05.827Z,100700.94
2022-12-12T10:43:22.372Z,100695.88
2022-12-12T10:48:24.013Z,100684.66
2022-12-12T10:53:26.055Z,100684.00
2022-12-12T10:58:36.401Z,100683.38
2022-12-12T11:03:52.442Z,100672.41
2022-12-12T11:09:22.803Z,100663.63
2022-12-12T11:14:33.680Z,100659.69
2022-12-12T11:19:38.855Z,100655.81
2022-12-12T11:24:45.257Z,100658.72
2022-12-12T11:29:53.861Z,100654.34
2022-12-12T11:34:59.022Z,100652.03
2022-12-12T11:40:00.692Z,100642.41
2022-12-12T11:45:25.974Z,100640.28
2022-12-12T11:50:29.799Z,100642.56
2022-12-12T11:55:54.712Z,100637.38
2022-12-12T12:01:07.133Z,100624.59
2022-12-12T12:06:51.645Z,100624.47
2022-12-12T12:12:10.164Z,100627.03
2022-12-12T12:18:05.697Z,100611.59
2022-12-12T12:23:41.216Z,100612.06
2022-12-12T12:29:05.751Z,100603.72
2022-12-12T12:34:40.921Z,100604.94
2022-12-12T12:40:03.096Z,100611.59
2022-12-12T12:45:38.277Z,100608.50
2022-12-12T12:51:06.772Z,100594.88
2022-12-12T12:56:30.115Z,100594.56
2022-12-12T13:01:34.511Z,100590.84
2022-12-12T13:06:42.365Z,100584.06
2022-12-12T13:11:48.966Z,100588.31
2022-12-12T13:16:51.723Z,100587.66
2022-12-12T13:22:16.580Z,100597.31
2022-12-12T13:27:41.014Z,100586.69
2022-12-12T13:32:57.468Z,100593.66
2022-12-12T13:38:00.381Z,100586.16
2022-12-12T13:43:09.528Z,100592.88
2022-12-12T13:48:27.166Z,100582.97
2022-12-12T13:53:28.746Z,100580.88
2022-12-12T13:58:34.169Z,100586.03
2022-12-12T14:03:36.863Z,100575.97
2022-12-12T14:08:48.407Z,100571.97
2022-12-12T14:13:50.056Z,100575.63
2022-12-12T14:18:52.295Z,100575.47
2022-12-12T14:23:53.878Z,100573.06
2022-12-12T14:29:17.484Z,100570.22
2022-12-12T14:34:34.472Z,100571.44
2022-12-12T14:39:55.837Z,100576.69
2022-12-12T14:44:57.508Z,100587.38
2022-12-12T14:50:11.168Z,100591.72
2022-12-12T14:55:16.110Z,100591.22
2022-12-12T15:00:19.397Z,100593.75
2022-12-12T15:05:21.236Z,100597.59
2022-12-12T15:10:30.087Z,100597.63
2022-12-12T15:15:34.068Z,100589.38
2022-12-12T15:20:35.824Z,100587.94
2022-12-12T15:25:46.617Z,100582.59
2022-12-12T15:30:53.019Z,100590.16
2022-12-12T15:36:02.410Z,100601.69
2022-12-12T15:41:12.711Z,100598.78
2022-12-12T15:46:15.900Z,100604.75
2022-12-12T15:51:24.649Z,100606.50
2022-12-12T15:56:28.643Z,100617.28
2022-12-12T16:01:31.013Z,100613.75
2022-12-12T16:06:36.912Z,100613.09
2022-12-12T16:11:52.948Z,100606.50
2022-12-12T16:17:06.602Z,100607.44
2022-12-12T16:22:17.558Z,100609.38
2022-12-12T16:27:19.963Z,100616.63
2022-12-12T16:32:23.206Z,100623.00
2022-12-12T16:37:24.846Z,100630.63
2022-12-12T16:42:28.096Z,100634.97
2022-12-12T16:47:30.721Z,100627.38
2022-12-12T16:52:32.215Z,100619.00
2022-12-12T16:57:33.790Z,100617.22
2022-12-12T17:02:35.326Z,100632.22
2022-12-12T17:07:36.919Z,100632.47
2022-12-12T17:12:38.902Z,100632.84
2022-12-12T17:17:40.641Z,100628.41
2022-12-12T17:22:42.669Z,100623.03
2022-12-12T17:27:44.579Z,100626.50
2022-12-12T17:38:05.743Z,100611.53
2022-12-12T17:43:07.353Z,100618.06
2022-12-12T17:48:09.092Z,100620.63
2022-12-12T17:53:10.630Z,100621.47
2022-12-12T17:58:12.245Z,100627.22
2022-12-12T18:03:13.770Z,100628.19
2022-12-12T18:08:15.401Z,100625.69
2022-12-12T18:13:16.970Z,100630.03
2022-12-12T18:18:18.581Z,100631.94
2022-12-12T18:23:20.195Z,100624.38
2022-12-12T18:28:21.818Z,100626.19
2022-12-12T18:33:23.508Z,100620.47
2022-12-12T18:38:25.153Z,100612.81
2022-12-12T18:43:27.644Z,100617.41
2022-12-12T18:48:29.444Z,100624.66
2022-12-12T18:53:31.027Z,100616.28
2022-12-12T18:58:33.981Z,100623.59
2022-12-12T19:03:36.766Z,100619.66
2022-12-12T19:08:39.078Z,100630.47
2022-12-12T19:13:40.918Z,100631.09
2022-12-12T19:18:43.312Z,100630.00
2022-12-12T19:23:45.791Z,100627.25
2022-12-12T19:28:47.386Z,100629.81
2022-12-12T19:33:49.108Z,100628.94
2022-12-12T19:38:51.802Z,100622.75
2022-12-12T19:43:54.120Z,100624.22
2022-12-12T19:48:57.956Z,100632.38
2022-12-12T19:54:02.987Z,100637.72
2022-12-12T19:59:04.896Z,100635.81
2022-12-12T20:04:08.763Z,100638.19
2022-12-12T20:09:15.733Z,100638.28
2022-12-12T20:14:20.913Z,100631.50
2022-12-12T20:19:24.896Z,100636.13
2022-12-12T20:24:26.501Z,100636.75
2022-12-12T20:29:28.073Z,100637.25
2022-12-12T20:34:29.942Z,100641.69
2022-12-12T20:39:31.625Z,100636.44
2022-12-12T20:44:33.289Z,100637.06
2022-12-12T20:49:34.822Z,100637.06
2022-12-12T20:54:36.493Z,100638.09
2022-12-12T20:59:38.256Z,100639.22
2022-12-12T21:04:39.859Z,100646.00
2022-12-12T21:09:41.541Z,100645.91
2022-12-12T21:14:43.613Z,100643.34
2022-12-12T21:19:45.289Z,100648.38
2022-12-12T21:24:47.624Z,100656.38
2022-12-12T21:29:49.250Z,100642.59
2022-12-12T21:34:50.952Z,100645.81
2022-12-12T21:39:52.619Z,100652.25
2022-12-12T21:44:54.141Z,100653.38
2022-12-12T21:49:55.657Z,100649.88
2022-12-12T21:54:57.311Z,100658.31
2022-12-12T21:59:58.858Z,100658.72
2022-12-12T22:05:00.438Z,100650.81
2022-12-12T22:10:10.783Z,100645.28
2022-12-12T22:15:13.459Z,100643.31
2022-12-12T22:20:15.273Z,100643.72
2022-12-12T22:25:19.877Z,100653.81
2022-12-12T22:30:21.557Z,100640.75
2022-12-12T22:35:23.211Z,100647.31
2022-12-12T22:40:24.798Z,100635.63
2022-12-12T22:45:26.440Z,100647.09
2022-12-12T22:50:28.036Z,100634.03
2022-12-12T22:55:29.623Z,100632.81
2022-12-12T23:00:31.395Z,100633.75
2022-12-12T23:05:33.077Z,100624.50
2022-12-12T23:10:35.036Z,100619.47
2022-12-12T23:15:36.802Z,100625.41
2022-12-12T23:20:38.339Z,100607.72
2022-12-12T23:25:39.973Z,100600.28
2022-12-12T23:30:41.625Z,100599.56
2022-12-12T23:35:48.044Z,100592.16
2022-12-12T23:40:49.653Z,100597.84
2022-12-12T23:45:51.273Z,100590.78
2022-12-12T23:50:52.847Z,100600.31
2022-12-12T23:55:54.483Z,100591.81
